USCMUSCC

Guest
Details From USCM - MAGNITOGORSK
To USCC - BALANDINO
Flight Number -
Tags generated
Created
Modified
Stats Distance 155 nm / 287 km
Max Altitude 17,300 ft / 5,273 m
Waypoints 4
Social Downloads 0
Likes 0
Share VATSIM

Download

Looking for another format? Having issues loading an existing format? Contact us
Advertisement - Login to hide

Notes

Basic altitude profile: - Ascent Rate: 2500ft/min - Ascent Speed: 250kts - Cruise Altitude: 35000ft - Cruise Speed: 420kts - Descent Rate: 1500ft/min - Descent Speed: 250kts Options: - Use NATs: yes - Use PACOTS: yes - Use low airways: yes - Use high airways: yes

Route

USCM MGR G552 METOL USCC

ID Type Via Altitude Latitude Longitude Leg Dist Tot Dist Heading (true) Name
O USCM APT - 0 ft / 0 m 53.39313˚ 58.75566˚ - 0 nm - MAGNITOGORSK
MGR VOR - 200 ft / 61 m 53.40417˚ 58.75750˚ 0 nm 0 nm 6° / 6° MAGNITOGORSK VOR-DME
METOL FIX G552 (AWY-LO) 17,300 ft / 5,273 m 54.17000˚ 59.14333˚ 47 nm 48 nm 16° / 17° -
O USCC APT - 0 ft / 0 m 55.30584˚ 61.50332˚ 106 nm 155 nm 49° / 51° BALANDINO

Altitude Profile

Advertisement - Login to hide

USCM

Details ICAO USCM (MQF)
Name MAGNITOGORSK
Region Russia
Timezone Asia/Yekaterinburg (UTC+5.0)
Stats Elevation 1,431 ft / 436 m (AMSL)
Location 53.393132° 58.755661°
Runways 1
Magnetic Variation 12.522° E

METAR

USCM 171930Z 00000MPS 1700 1400E R18/P2000N BR SCT007 M23/M26 Q1038 R18/090060 TEMPO 0300 FZFG VV002 RMK QFE740

Decode

TAF

Not found

Departure Runways

ID Width Length Bearing (true) Bearing (mag) Surface Threshold Offset Overrun Length
01 148 ft / 45 m 10,648 ft / 3,246 m 16.20° 3.68° Concrete 0 ft / 0 m 140 ft / 43 m
19 148 ft / 45 m 10,648 ft / 3,246 m 196.21° 183.69° Concrete 0 ft / 0 m 140 ft / 43 m

USCC

Details ICAO USCC (CEK)
Name BALANDINO
Region Russia
Timezone Asia/Yekaterinburg (UTC+5.0)
Stats Elevation 769 ft / 234 m (AMSL)
Location 55.305843° 61.503320°
Runways 1
Magnetic Variation 13.794° E

METAR

USCC 171930Z 14002MPS 3500 BR FU NSC M20/M23 Q1038 R09/000060 TEMPO 0300 FZFG VV002 RMK QFE758

Decode

TAF

TAF USCC 171700Z 1718/1818 14003MPS 3100 BR FU SCT020 TEMPO 1718/1807 20001MPS 2400 BR FU SCT011

Decode

Destination Runways

ID Width Length Bearing (true) Bearing (mag) Surface Threshold Offset Overrun Length
09 197 ft / 60 m 10,443 ft / 3,183 m 103.59° 89.80° Concrete 0 ft / 0 m 230 ft / 70 m
27 197 ft / 60 m 10,443 ft / 3,183 m 283.63° 269.84° Concrete 0 ft / 0 m 230 ft / 70 m

Approach Navaids

Runway Type Ident Frequency Range Bearing (true) Bearing (mag) Slope Elevation
09 Localiser ILB 109.90 MHz 18 nm / 33 km 105.25° 91.46° - 769 ft / 234 m (AMSL)
09 Glidescope ILB 109.90 MHz 10 nm / 19 km 103.61° 89.82° 2.80° 769 ft / 234 m (AMSL)
27 Localiser IKS 108.70 MHz 18 nm / 33 km 282.19° 268.39° - 769 ft / 234 m (AMSL)
27 Glidescope IKS 108.70 MHz 10 nm / 19 km 283.61° 269.82° 2.80° 769 ft / 234 m (AMSL)

Popular Alternatives